createdAt,value
2023-04-06T00:01:24.688Z,95170
2023-04-06T00:04:49.860Z,95167
2023-04-06T00:08:15.033Z,95166
2023-04-06T00:11:40.157Z,95167
2023-04-06T00:15:05.360Z,95166
2023-04-06T00:18:30.494Z,95168
2023-04-06T00:21:55.684Z,95162
2023-04-06T00:25:20.837Z,95162
2023-04-06T00:28:46.019Z,95163
2023-04-06T00:32:11.224Z,95160
2023-04-06T00:35:36.369Z,95155
2023-04-06T00:39:01.518Z,95158
2023-04-06T00:42:26.747Z,95152
2023-04-06T00:45:51.872Z,95151
2023-04-06T00:49:17.059Z,95157
2023-04-06T00:52:42.200Z,95152
2023-04-06T00:56:07.358Z,95144
2023-04-06T00:59:32.558Z,95146
2023-04-06T01:02:57.797Z,95146
2023-04-06T01:06:22.921Z,95140
2023-04-06T01:09:48.032Z,95140
2023-04-06T01:13:13.206Z,95138
2023-04-06T01:16:38.352Z,95136
2023-04-06T01:20:03.522Z,95134
2023-04-06T01:23:28.722Z,95134
2023-04-06T01:26:53.856Z,95136
2023-04-06T01:30:19.049Z,95130
2023-04-06T01:33:44.212Z,95128
2023-04-06T01:37:09.373Z,95123
2023-04-06T01:40:34.566Z,95129
2023-04-06T01:43:59.696Z,95122
2023-04-06T01:47:24.922Z,95120
2023-04-06T01:50:50.049Z,95122
2023-04-06T01:54:15.232Z,95119
2023-04-06T01:57:40.451Z,95119
2023-04-06T02:01:05.613Z,95113
2023-04-06T02:04:30.753Z,95114
2023-04-06T02:07:55.919Z,95109
2023-04-06T02:11:21.098Z,95108
2023-04-06T02:14:46.292Z,95112
2023-04-06T02:18:11.410Z,95110
2023-04-06T02:21:36.577Z,95110
2023-04-06T02:25:01.750Z,95107
2023-04-06T02:28:26.932Z,95105
2023-04-06T02:31:52.153Z,95110
2023-04-06T02:35:17.350Z,95109
2023-04-06T02:38:42.448Z,95111
2023-04-06T02:42:07.605Z,95111
2023-04-06T02:45:32.813Z,95105
2023-04-06T02:48:58.011Z,95109
2023-04-06T02:52:23.160Z,95104
2023-04-06T02:55:48.310Z,95108
2023-04-06T02:59:13.527Z,95103
2023-04-06T03:02:38.698Z,95108
2023-04-06T03:06:03.901Z,95110
2023-04-06T03:09:29.000Z,95104
2023-04-06T03:12:54.181Z,95114
2023-04-06T03:16:19.412Z,95112
2023-04-06T03:19:44.522Z,95117
2023-04-06T03:23:09.714Z,95113
2023-04-06T03:26:34.878Z,95115
2023-04-06T03:30:00.055Z,95117
2023-04-06T03:33:25.207Z,95114
2023-04-06T03:36:59.688Z,95112
2023-04-06T03:40:15.570Z,95106
2023-04-06T03:43:40.731Z,95110
2023-04-06T03:47:05.908Z,95114
2023-04-06T03:50:31.067Z,95112
2023-04-06T03:53:56.251Z,95115
2023-04-06T03:57:21.454Z,95119
2023-04-06T04:00:46.591Z,95124
2023-04-06T04:04:11.780Z,95122
2023-04-06T04:07:36.949Z,95124
2023-04-06T04:11:02.130Z,95127
2023-04-06T04:14:27.326Z,95122
2023-04-06T04:17:52.583Z,95127
2023-04-06T04:21:17.682Z,95121
2023-04-06T04:24:42.857Z,95129
2023-04-06T04:28:08.026Z,95126
2023-04-06T04:31:33.285Z,95132
2023-04-06T04:34:58.460Z,95133
2023-04-06T04:38:23.636Z,95127
2023-04-06T04:41:48.842Z,95129
2023-04-06T04:45:14.020Z,95125
2023-04-06T04:48:40.543Z,95131
2023-04-06T04:52:04.380Z,95128
2023-04-06T04:55:29.558Z,95128
2023-04-06T04:58:54.796Z,95126
2023-04-06T05:02:20.049Z,95126
2023-04-06T05:05:45.262Z,95130
2023-04-06T05:09:10.636Z,95132
2023-04-06T05:12:35.726Z,95134
2023-04-06T05:16:01.006Z,95133
2023-04-06T05:19:26.195Z,95142
2023-04-06T05:22:51.478Z,95147
2023-04-06T05:26:17.314Z,95144
2023-04-06T05:29:42.569Z,95145
2023-04-06T05:33:07.890Z,95145
2023-04-06T05:36:33.009Z,95149
2023-04-06T05:39:58.266Z,95146
2023-04-06T05:43:23.431Z,95152
2023-04-06T05:46:48.692Z,95153
2023-04-06T05:50:13.867Z,95155
2023-04-06T05:53:39.066Z,95154
2023-04-06T05:57:04.322Z,95156
2023-04-06T06:00:29.540Z,95158
2023-04-06T06:03:54.733Z,95161
2023-04-06T06:07:19.931Z,95157
2023-04-06T06:10:45.207Z,95156
2023-04-06T06:14:10.425Z,95153
2023-04-06T06:17:37.222Z,95157
2023-04-06T06:21:00.790Z,95154
2023-04-06T06:24:25.997Z,95157
2023-04-06T06:27:51.237Z,95151
2023-04-06T06:31:16.584Z,95151
2023-04-06T06:34:41.719Z,95153
2023-04-06T06:38:06.976Z,95156
2023-04-06T06:41:32.161Z,95165
2023-04-06T06:44:57.339Z,95168
2023-04-06T06:48:22.559Z,95169
2023-04-06T06:51:47.733Z,95169
2023-04-06T06:55:12.984Z,95163
2023-04-06T06:58:38.263Z,95160
2023-04-06T07:02:03.513Z,95161
2023-04-06T07:05:29.215Z,95160
2023-04-06T07:08:54.092Z,95162
2023-04-06T07:12:19.332Z,95159
2023-04-06T07:15:44.587Z,95156
2023-04-06T07:19:10.269Z,95154
2023-04-06T07:22:35.572Z,95157
2023-04-06T07:26:00.790Z,95156
2023-04-06T07:29:26.000Z,95157
2023-04-06T07:32:51.280Z,95155
2023-04-06T07:36:16.413Z,95157
2023-04-06T07:39:41.674Z,95162
2023-04-06T07:43:07.308Z,95163
2023-04-06T07:46:32.835Z,95160
2023-04-06T07:49:57.985Z,95159
2023-04-06T07:53:23.329Z,95164
2023-04-06T07:56:48.690Z,95160
2023-04-06T08:00:14.014Z,95158
2023-04-06T08:03:39.499Z,95163
2023-04-06T08:07:04.713Z,95162
2023-04-06T08:10:30.038Z,95161
2023-04-06T08:13:55.531Z,95155
2023-04-06T08:17:20.865Z,95159
2023-04-06T08:20:46.199Z,95158
2023-04-06T08:24:11.589Z,95158
2023-04-06T08:27:36.993Z,95159
2023-04-06T08:31:02.488Z,95162
2023-04-06T08:34:27.723Z,95161
2023-04-06T08:37:53.131Z,95161
2023-04-06T08:41:18.425Z,95161
2023-04-06T08:44:43.746Z,95162
2023-04-06T08:48:09.128Z,95159
2023-04-06T08:51:34.360Z,95154
2023-04-06T08:54:59.675Z,95153
2023-04-06T08:58:35.480Z,95161
2023-04-06T09:01:50.350Z,95164
2023-04-06T09:05:15.641Z,95162
2023-04-06T09:08:41.891Z,95161
2023-04-06T09:12:07.091Z,95156
2023-04-06T09:15:32.231Z,95152
2023-04-06T09:18:58.051Z,95164
2023-04-06T09:22:23.286Z,95159
2023-04-06T09:25:48.723Z,95157
2023-04-06T09:29:13.895Z,95149
2023-04-06T09:32:39.121Z,95145
2023-04-06T09:36:04.338Z,95143
2023-04-06T09:39:29.454Z,95146
2023-04-06T09:42:54.599Z,95147
2023-04-06T09:46:19.877Z,95148
2023-04-06T09:49:45.016Z,95149
2023-04-06T09:53:10.204Z,95148
2023-04-06T09:56:35.462Z,95142
2023-04-06T10:00:00.652Z,95140
2023-04-06T10:03:25.931Z,95135
2023-04-06T10:06:51.087Z,95139
2023-04-06T10:10:16.337Z,95135
2023-04-06T10:13:41.641Z,95136
2023-04-06T10:17:06.862Z,95133
2023-04-06T10:20:32.189Z,95128
2023-04-06T10:23:57.432Z,95126
2023-04-06T10:27:22.669Z,95126
2023-04-06T10:30:47.972Z,95126
2023-04-06T10:34:13.236Z,95126
2023-04-06T10:37:38.723Z,95114
2023-04-06T10:41:04.192Z,95118
2023-04-06T10:44:29.662Z,95118
2023-04-06T10:47:55.159Z,95114
2023-04-06T10:51:20.611Z,95107
2023-04-06T10:54:46.929Z,95105
2023-04-06T10:58:11.583Z,95105
2023-04-06T11:01:37.070Z,95104
2023-04-06T11:05:02.574Z,95099
2023-04-06T11:08:28.105Z,95104
2023-04-06T11:11:53.615Z,95102
2023-04-06T11:15:19.139Z,95099
2023-04-06T11:18:44.548Z,95089
2023-04-06T11:22:09.995Z,95090
2023-04-06T11:25:35.424Z,95092
2023-04-06T11:29:00.876Z,95088
2023-04-06T11:32:26.239Z,95089
2023-04-06T11:35:51.504Z,95082
2023-04-06T11:39:16.854Z,95083
2023-04-06T11:42:42.208Z,95084
2023-04-06T11:46:07.683Z,95085
2023-04-06T11:49:33.023Z,95078
2023-04-06T11:52:58.414Z,95070
2023-04-06T11:56:23.781Z,95063
2023-04-06T11:59:49.126Z,95060
2023-04-06T12:03:14.507Z,95065
2023-04-06T12:06:39.841Z,95063
2023-04-06T12:10:05.186Z,95057
2023-04-06T12:13:30.813Z,95052
2023-04-06T12:16:55.800Z,95059
2023-04-06T12:20:25.636Z,95052
2023-04-06T12:23:46.480Z,95048
2023-04-06T12:27:11.903Z,95046
2023-04-06T12:30:37.289Z,95049
2023-04-06T12:34:02.598Z,95047
2023-04-06T12:37:27.932Z,95042
2023-04-06T12:40:53.237Z,95039
2023-04-06T12:44:18.627Z,95037
2023-04-06T12:47:44.029Z,95032
2023-04-06T12:51:09.367Z,95036
2023-04-06T12:54:34.693Z,95029
2023-04-06T12:58:00.040Z,95022
2023-04-06T13:01:25.461Z,95021
2023-04-06T13:04:50.776Z,95014
2023-04-06T13:08:16.060Z,95014
2023-04-06T13:11:41.449Z,95012
2023-04-06T13:15:06.790Z,95017
2023-04-06T13:18:32.150Z,95017
2023-04-06T13:21:57.514Z,95020
2023-04-06T13:25:23.035Z,95012
2023-04-06T13:28:48.640Z,95010
2023-04-06T13:32:14.378Z,95005
2023-04-06T13:35:39.793Z,95010
2023-04-06T13:39:05.380Z,95007
2023-04-06T13:42:30.958Z,95004
2023-04-06T13:45:56.774Z,95000
2023-04-06T13:49:22.292Z,95006
2023-04-06T13:52:47.880Z,95003
2023-04-06T13:56:13.585Z,94998
2023-04-06T13:59:39.117Z,94999
2023-04-06T14:03:04.807Z,94999
2023-04-06T14:06:31.970Z,94995
2023-04-06T14:09:55.948Z,94998
2023-04-06T14:13:21.287Z,94992
2023-04-06T14:16:46.623Z,94995
2023-04-06T14:20:11.837Z,94994
2023-04-06T14:23:37.077Z,94994
2023-04-06T14:27:02.338Z,94992
2023-04-06T14:30:27.836Z,94996
2023-04-06T14:33:53.093Z,94990
2023-04-06T14:37:18.410Z,94989
2023-04-06T14:40:43.767Z,94989
2023-04-06T14:44:09.108Z,94987
2023-04-06T14:47:34.393Z,94987
2023-04-06T14:50:59.655Z,94983
2023-04-06T14:54:24.928Z,94984
2023-04-06T14:57:50.318Z,94975
2023-04-06T15:01:15.697Z,94976
2023-04-06T15:04:41.064Z,94968
2023-04-06T15:41:25.144Z,94971
2023-04-06T15:44:50.440Z,94971
2023-04-06T15:48:15.740Z,94971
2023-04-06T15:51:41.008Z,94968
2023-04-06T15:55:06.296Z,94967
2023-04-06T15:58:31.647Z,94969
2023-04-06T16:01:56.948Z,94971
2023-04-06T16:05:22.199Z,94969
2023-04-06T16:08:47.922Z,94971
2023-04-06T16:12:13.507Z,94967
2023-04-06T16:15:39.457Z,94976
2023-04-06T16:19:06.887Z,94974
2023-04-06T16:22:33.356Z,94970
2023-04-06T16:26:00.326Z,94969
2023-04-06T16:29:27.212Z,94974
2023-04-06T16:32:54.152Z,94970
2023-04-06T16:36:20.168Z,94968
2023-04-06T16:39:46.205Z,94970
2023-04-06T16:43:12.774Z,94967
2023-04-06T16:46:39.189Z,94964
2023-04-06T16:50:06.399Z,94968
2023-04-06T16:53:33.226Z,94967
2023-04-06T16:57:02.071Z,94971
2023-04-06T17:00:28.086Z,94970
2023-04-06T17:03:56.437Z,94971
2023-04-06T17:07:23.888Z,94976
2023-04-06T17:10:58.927Z,94978
2023-04-06T17:14:16.452Z,94979
2023-04-06T17:17:42.948Z,94975
2023-04-06T17:21:08.799Z,94980
2023-04-06T17:24:35.101Z,94978
2023-04-06T17:28:02.129Z,94980
2023-04-06T17:31:28.625Z,94986
2023-04-06T17:34:54.795Z,94981
2023-04-06T17:38:22.153Z,94985
2023-04-06T17:41:49.448Z,94984
2023-04-06T17:45:16.100Z,94991
2023-04-06T17:48:42.848Z,94994
2023-04-06T17:52:09.372Z,94996
2023-04-06T17:55:35.935Z,94999
2023-04-06T17:59:02.599Z,95001
2023-04-06T18:02:29.292Z,94998
2023-04-06T18:05:55.555Z,95004
2023-04-06T18:09:21.948Z,95007
2023-04-06T18:12:48.528Z,95005
2023-04-06T18:16:15.207Z,95009
2023-04-06T18:19:41.576Z,95016
2023-04-06T18:23:08.094Z,95023
2023-04-06T18:26:34.664Z,95016
2023-04-06T18:30:01.125Z,95020
2023-04-06T18:33:27.526Z,95024
2023-04-06T18:36:53.650Z,95025
2023-04-06T18:40:19.403Z,95028
2023-04-06T18:43:45.134Z,95026
2023-04-06T18:47:10.826Z,95026
2023-04-06T18:50:36.569Z,95029
2023-04-06T18:54:02.285Z,95029
2023-04-06T18:57:27.966Z,95028
2023-04-06T19:00:53.732Z,95026
2023-04-06T19:04:19.607Z,95033
2023-04-06T19:07:45.227Z,95031
2023-04-06T19:11:10.975Z,95031
2023-04-06T19:14:36.707Z,95032
2023-04-06T19:18:02.403Z,95033
2023-04-06T19:21:28.062Z,95031
2023-04-06T19:24:53.770Z,95031
2023-04-06T19:28:19.464Z,95032
2023-04-06T19:31:45.184Z,95032
2023-04-06T19:35:10.894Z,95036
2023-04-06T19:38:36.681Z,95037
2023-04-06T19:42:02.455Z,95023
2023-04-06T19:45:28.118Z,95031
2023-04-06T19:48:53.760Z,95021
2023-04-06T19:52:19.421Z,95026
2023-04-06T19:55:45.035Z,95023
2023-04-06T19:59:10.691Z,95021
2023-04-06T20:02:36.457Z,95021
2023-04-06T20:06:02.114Z,95025
2023-04-06T20:09:27.738Z,95029
2023-04-06T20:12:53.427Z,95023
2023-04-06T20:16:19.143Z,95024
2023-04-06T20:19:44.834Z,95028
2023-04-06T20:23:10.333Z,95019
2023-04-06T20:26:36.464Z,95022
2023-04-06T20:30:02.087Z,95021
2023-04-06T20:33:27.730Z,95019
2023-04-06T20:36:53.328Z,95015
2023-04-06T20:40:18.966Z,95010
2023-04-06T20:43:44.624Z,95012
2023-04-06T20:47:10.249Z,95009
2023-04-06T20:50:35.902Z,95007
2023-04-06T20:54:01.515Z,95001
2023-04-06T20:57:27.180Z,95000
2023-04-06T21:00:52.890Z,94998
2023-04-06T21:04:18.873Z,95001
2023-04-06T21:07:44.210Z,94995
2023-04-06T21:11:09.897Z,94995
2023-04-06T21:14:35.571Z,94999
2023-04-06T21:18:01.196Z,94990
2023-04-06T21:21:26.836Z,94986
2023-04-06T21:24:52.585Z,94991
2023-04-06T21:28:18.252Z,95000
2023-04-06T21:31:43.893Z,94996
2023-04-06T21:35:09.517Z,94997
2023-04-06T21:38:35.144Z,94996
2023-04-06T21:42:00.813Z,94987
2023-04-06T21:45:26.437Z,94994
2023-04-06T21:48:52.093Z,94991
2023-04-06T21:52:17.739Z,94991
2023-04-06T21:55:43.411Z,94985
2023-04-06T21:59:09.067Z,94984
2023-04-06T22:02:34.824Z,94987
2023-04-06T22:06:00.392Z,94983
2023-04-06T22:09:26.062Z,94987
2023-04-06T22:12:51.656Z,94990
2023-04-06T22:16:17.398Z,94994
2023-04-06T22:19:43.014Z,94984
2023-04-06T22:23:08.677Z,94973
2023-04-06T22:26:34.314Z,94975
2023-04-06T22:29:59.944Z,94975
2023-04-06T22:33:25.627Z,94973
2023-04-06T22:36:51.257Z,94976
2023-04-06T22:40:16.894Z,94977
2023-04-06T22:43:42.503Z,94975
2023-04-06T22:47:08.249Z,94978
2023-04-06T22:50:33.851Z,94982
2023-04-06T22:53:59.440Z,94982
2023-04-06T22:57:25.075Z,94980
2023-04-06T23:00:50.716Z,94976
2023-04-06T23:04:16.636Z,94977
2023-04-06T23:07:42.062Z,94972
2023-04-06T23:11:07.642Z,94966
2023-04-06T23:14:33.215Z,94970
2023-04-06T23:17:58.868Z,94974
2023-04-06T23:21:24.480Z,94970
2023-04-06T23:24:50.162Z,94964
2023-04-06T23:28:15.765Z,94968
2023-04-06T23:31:41.398Z,94965
2023-04-06T23:35:06.951Z,94967
2023-04-06T23:38:32.526Z,94962
2023-04-06T23:41:58.207Z,94965
2023-04-06T23:45:24.526Z,94964
2023-04-06T23:48:50.139Z,94957
2023-04-06T23:52:15.766Z,94954
2023-04-06T23:55:41.393Z,94949
2023-04-06T23:59:07.019Z,94952
